Time;durP1;ratioP1;P1;durP2;ratioP2;P2;SDS_P1;SDS_P2;PMS_P1;PMS_P2;Temp;Humidity;BMP_temperature;BMP_pressure;BME280_temperature;BME280_humidity;BME280_pressure;Samples;Min_cycle;Max_cycle;Signal;HPM_P1;HPM_P2
2023/11/21 00:04:12;;;;;;;45.00;18.32;;;;;;;4.64;100.00;99953.13;5040305;56;1256100;-72
2023/11/21 00:09:18;;;;;;;36.58;18.90;;;;;;;4.48;100.00;99961.08;5062764;57;1138938;-73
2023/11/21 00:14:23;;;;;;;39.47;21.17;;;;;;;4.41;100.00;99966.34;5042356;57;1140907;-73
2023/11/21 00:19:29;;;;;;;33.80;18.27;;;;;;;4.34;100.00;99965.02;5042371;57;1141024;-72
2023/11/21 00:24:35;;;;;;;47.97;19.97;;;;;;;4.26;100.00;99966.42;5062578;56;1138845;-73
2023/11/21 00:29:40;;;;;;;40.23;18.93;;;;;;;4.16;100.00;99973.97;5041684;56;1138952;-73
2023/11/21 00:34:46;;;;;;;40.23;18.60;;;;;;;4.06;100.00;99984.62;5042717;57;1138729;-72
2023/11/21 00:39:51;;;;;;;33.00;17.60;;;;;;;4.00;100.00;99984.50;5124830;56;1139198;-72
2023/11/21 00:44:57;;;;;;;39.03;18.13;;;;;;;3.93;100.00;99992.36;5041493;57;1138895;-73
2023/11/21 00:50:03;;;;;;;35.67;19.53;;;;;;;3.89;100.00;99987.76;4880637;59;1140747;-73
2023/11/21 00:55:11;;;;;;;40.63;18.82;;;;;;;3.91;100.00;99994.67;5045216;57;1140874;-72
2023/11/21 01:00:17;;;;;;;38.83;18.67;;;;;;;3.95;100.00;99993.11;5095832;56;1140956;-73
2023/11/21 01:05:23;;;;;;;40.73;18.82;;;;;;;3.99;100.00;99997.67;5142824;56;1138771;-73
2023/11/21 01:10:28;;;;;;;32.27;17.60;;;;;;;3.88;100.00;99997.00;5142748;56;1138749;-72
2023/11/21 01:15:35;;;;;;;38.03;17.37;;;;;;;3.84;100.00;99995.48;5161590;56;1138663;-72
2023/11/21 01:20:41;;;;;;;30.67;16.37;;;;;;;3.86;100.00;99998.39;5087740;56;1140724;-73
2023/11/21 01:25:46;;;;;;;31.37;16.63;;;;;;;3.79;100.00;99996.24;5070641;56;1138672;-72
2023/11/21 01:30:52;;;;;;;32.93;16.83;;;;;;;3.71;100.00;100007.13;5162505;56;1139241;-73
2023/11/21 01:35:59;;;;;;;29.87;15.87;;;;;;;3.58;100.00;100011.38;5142120;56;1140710;-72
2023/11/21 01:41:06;;;;;;;30.10;15.17;;;;;;;3.55;100.00;100014.16;5142320;56;1140838;-73
2023/11/21 01:46:12;;;;;;;29.60;14.38;;;;;;;3.57;100.00;100015.39;5141423;56;1142951;-72
2023/11/21 01:51:19;;;;;;;31.60;16.30;;;;;;;3.59;100.00;100006.99;5162300;56;1142908;-72
2023/11/21 01:56:26;;;;;;;31.20;14.17;;;;;;;3.51;100.00;100008.75;5142571;56;1140890;-72
2023/11/21 02:01:31;;;;;;;24.60;14.03;;;;;;;3.48;100.00;100029.38;5087300;56;1140713;-72
2023/11/21 02:06:38;;;;;;;24.77;12.70;;;;;;;3.45;100.00;100035.23;5062099;57;1140868;-72
2023/11/21 02:11:44;;;;;;;20.50;11.07;;;;;;;3.45;100.00;100045.69;5042364;57;1140648;-73
2023/11/21 02:16:52;;;;;;;15.03;9.77;;;;;;;3.43;100.00;100051.00;5089719;56;1142938;-73
2023/11/21 02:22:03;;;;;;;15.10;10.00;;;;;;;3.47;100.00;100054.29;5137880;56;1140864;-72
2023/11/21 02:27:06;;;;;;;12.70;8.40;;;;;;;3.44;100.00;100055.76;5089594;56;1140643;-73
2023/11/21 02:32:12;;;;;;;12.47;7.90;;;;;;;3.39;100.00;100060.39;5042186;57;1139015;-72
2023/11/21 02:37:18;;;;;;;14.50;8.75;;;;;;;3.40;100.00;100071.22;5144155;56;1138447;-73
2023/11/21 02:42:23;;;;;;;13.60;6.80;;;;;;;3.36;100.00;100074.47;4959578;58;1140716;-72
2023/11/21 02:47:29;;;;;;;10.93;7.87;;;;;;;3.34;100.00;100078.96;5125867;56;1140778;-73
2023/11/21 02:52:35;;;;;;;9.03;7.53;;;;;;;3.28;100.00;100084.52;4978429;58;1139325;-72
2023/11/21 02:57:40;;;;;;;9.50;7.73;;;;;;;3.18;100.00;100085.48;5126982;56;1136398;-72
2023/11/21 03:02:47;;;;;;;11.60;7.03;;;;;;;3.13;100.00;100091.87;4959733;58;1136495;-73
2023/11/21 03:07:52;;;;;;;10.40;7.77;;;;;;;3.06;100.00;100094.42;5062897;57;1139056;-73
2023/11/21 03:12:58;;;;;;;9.57;6.77;;;;;;;2.93;100.00;100096.84;5043273;56;1138850;-73
2023/11/21 03:18:05;;;;;;;8.20;6.20;;;;;;;2.82;100.00;100101.34;5042489;56;1136730;-72
2023/11/21 03:23:10;;;;;;;8.20;6.32;;;;;;;2.78;100.00;100107.64;5042502;56;1136810;-73
2023/11/21 03:28:16;;;;;;;7.80;6.37;;;;;;;2.83;100.00;100115.24;5063078;56;1136722;-72
2023/11/21 03:33:22;;;;;;;7.85;5.83;;;;;;;2.85;100.00;100123.00;5042033;56;1136991;-73
2023/11/21 03:38:27;;;;;;;6.55;5.85;;;;;;;2.74;100.00;100131.40;5080841;56;1136578;-72
2023/11/21 03:43:33;;;;;;;6.07;4.80;;;;;;;2.65;100.00;100126.62;4979867;58;1136910;-72
2023/11/21 03:48:38;;;;;;;5.00;4.60;;;;;;;2.60;100.00;100133.38;5127456;56;1136703;-72
2023/11/21 03:53:44;;;;;;;7.57;5.97;;;;;;;2.59;100.00;100138.71;5126184;56;1136332;-73
2023/11/21 03:58:50;;;;;;;8.47;6.30;;;;;;;2.52;100.00;100136.02;4979701;58;1136847;-72
2023/11/21 04:03:57;;;;;;;12.93;5.70;;;;;;;2.44;100.00;100146.86;5047459;56;1137034;-72
2023/11/21 04:09:04;;;;;;;5.73;4.30;;;;;;;2.42;100.00;100146.08;5006089;57;1138716;-72
2023/11/21 04:14:11;;;;;;;5.70;4.22;;;;;;;2.40;100.00;100144.01;5110999;56;1136756;-74
2023/11/21 04:19:17;;;;;;;6.00;4.37;;;;;;;2.32;100.00;100152.66;5057496;57;1136664;-72
2023/11/21 04:24:22;;;;;;;5.03;4.33;;;;;;;2.20;100.00;100148.05;4960096;58;1136619;-72
2023/11/21 04:29:27;;;;;;;7.77;5.33;;;;;;;2.18;100.00;100155.95;5042992;56;1136753;-73
2023/11/21 04:34:34;;;;;;;7.63;4.80;;;;;;;2.09;100.00;100164.23;5062703;57;1136781;-73
2023/11/21 04:39:40;;;;;;;7.47;5.83;;;;;;;1.98;100.00;100172.59;5042741;57;1136627;-72
2023/11/21 04:44:45;;;;;;;7.80;5.47;;;;;;;1.95;100.00;100177.09;4881104;59;1136677;-72
2023/11/21 04:49:51;;;;;;;11.70;5.65;;;;;;;1.92;100.00;100178.54;5062000;57;1136601;-72
2023/11/21 04:54:58;;;;;;;8.23;6.03;;;;;;;1.92;100.00;100191.12;4879997;59;1138794;-73
2023/11/21 05:00:05;;;;;;;11.43;7.13;;;;;;;1.94;100.00;100201.48;5042206;57;1136782;-73
2023/11/21 05:05:12;;;;;;;7.30;6.20;;;;;;;1.95;100.00;100208.39;5004561;57;1138927;-73
2023/11/21 05:10:17;;;;;;;7.75;5.80;;;;;;;1.91;100.00;100211.59;5139529;56;1136581;-73
2023/11/21 05:15:23;;;;;;;8.53;6.60;;;;;;;1.78;100.00;100215.70;5037418;57;1136625;-72
2023/11/21 05:20:29;;;;;;;7.03;6.30;;;;;;;1.72;100.00;100217.27;5038468;57;1136607;-71
2023/11/21 05:25:36;;;;;;;9.67;6.90;;;;;;;1.71;100.00;100222.94;5057802;56;1136603;-72
2023/11/21 05:30:41;;;;;;;9.97;7.80;;;;;;;1.74;100.00;100226.72;5043363;56;1136602;-72
2023/11/21 05:35:48;;;;;;;10.03;7.03;;;;;;;1.74;100.00;100227.17;5042900;56;1136699;-73
2023/11/21 05:40:54;;;;;;;9.67;7.43;;;;;;;1.74;100.00;100238.91;5141860;56;1139046;-72
2023/11/21 05:45:59;;;;;;;7.63;6.27;;;;;;;1.67;100.00;100242.27;4960034;58;1136917;-72
2023/11/21 05:51:08;;;;;;;8.83;6.73;;;;;;;1.61;100.00;100245.14;5127023;56;1136389;-72
2023/11/21 05:56:13;;;;;;;9.55;6.90;;;;;;;1.59;100.00;100250.87;4960001;58;1136945;-72
2023/11/21 06:01:19;;;;;;;10.50;6.83;;;;;;;1.60;100.00;100259.08;5138817;56;1136802;-72
2023/11/21 06:06:25;;;;;;;8.10;5.80;;;;;;;1.57;100.00;100269.64;5113396;56;1138789;-72
2023/11/21 06:11:31;;;;;;;10.23;6.13;;;;;;;1.55;100.00;100270.16;4942889;58;1136646;-72
2023/11/21 06:16:36;;;;;;;6.90;5.70;;;;;;;1.54;100.00;100281.50;5055489;57;1138674;-72
2023/11/21 06:21:42;;;;;;;8.07;6.30;;;;;;;1.56;100.00;100291.41;4967680;57;1136720;-72
2023/11/21 06:26:48;;;;;;;9.33;6.20;;;;;;;1.52;100.00;100295.08;5007951;57;1136662;-72
2023/11/21 06:31:54;;;;;;;8.20;6.20;;;;;;;1.49;100.00;100306.94;4961929;58;1136862;-73
2023/11/21 06:37:00;;;;;;;10.90;7.30;;;;;;;1.49;100.00;100310.00;5038316;57;1137029;-72
2023/11/21 06:42:06;;;;;;;15.40;9.80;;;;;;;1.56;100.00;100305.73;5054673;57;1138732;-72
2023/11/21 06:47:11;;;;;;;14.43;10.27;;;;;;;1.61;100.00;100326.39;5055401;57;1139092;-72
2023/11/21 06:52:18;;;;;;;11.55;9.40;;;;;;;1.64;100.00;100333.62;5069438;57;1141343;-72
2023/11/21 06:57:25;;;;;;;13.15;8.93;;;;;;;1.55;100.00;100332.71;5054507;56;1138850;-72
2023/11/21 07:02:30;;;;;;;11.00;8.27;;;;;;;1.51;100.00;100355.09;5054093;57;1138805;-72
2023/11/21 07:07:36;;;;;;;12.00;8.70;;;;;;;1.39;100.00;100361.19;5073849;56;1138879;-72
2023/11/21 07:12:42;;;;;;;14.73;9.30;;;;;;;1.32;100.00;100375.41;5054769;57;1138721;-73
2023/11/21 07:17:48;;;;;;;11.03;9.20;;;;;;;1.35;100.00;100380.49;5048924;57;1138596;-73
2023/11/21 07:22:53;;;;;;;14.57;9.87;;;;;;;1.37;100.00;100384.34;4991965;58;1138738;-73
2023/11/21 07:27:59;;;;;;;15.60;11.07;;;;;;;1.37;100.00;100396.91;5022155;57;1138572;-73
2023/11/21 07:33:05;;;;;;;16.15;10.95;;;;;;;1.34;100.00;100404.00;5053379;57;1140887;-72
2023/11/21 07:38:10;;;;;;;13.63;8.80;;;;;;;1.20;100.00;100407.63;5053846;57;1141169;-73
2023/11/21 07:43:16;;;;;;;16.35;10.85;;;;;;;1.20;100.00;100407.63;5075581;57;1139111;-72
2023/11/21 07:48:21;;;;;;;16.85;11.43;;;;;;;1.20;100.00;100413.69;5055953;57;1140832;-72
2023/11/21 07:53:29;;;;;;;19.90;11.75;;;;;;;1.16;100.00;100419.92;5047247;57;1141161;-73
2023/11/21 07:58:35;;;;;;;20.77;11.33;;;;;;;1.16;100.00;100426.89;5075019;57;1141203;-72
2023/11/21 08:03:41;;;;;;;29.07;14.13;;;;;;;1.12;100.00;100432.67;4971863;56;1140858;-73
2023/11/21 08:08:47;;;;;;;30.27;15.03;;;;;;;1.10;100.00;100437.09;4975736;57;1140990;-73
2023/11/21 08:13:54;;;;;;;28.40;15.30;;;;;;;1.14;100.00;100445.19;5092290;56;1140855;-72
2023/11/21 08:19:00;;;;;;;24.33;12.37;;;;;;;1.14;100.00;100450.84;5089377;56;1140765;-73
2023/11/21 08:24:10;;;;;;;22.53;12.60;;;;;;;1.05;100.00;100451.62;5088785;56;1141012;-73
2023/11/21 08:29:13;;;;;;;23.22;14.38;;;;;;;0.96;100.00;100448.05;5057079;56;1259919;-73
2023/11/21 08:34:19;;;;;;;22.93;12.10;;;;;;;0.91;100.00;100455.22;5076803;57;1140954;-73
2023/11/21 08:39:24;;;;;;;22.80;14.10;;;;;;;0.90;100.00;100458.73;5093584;56;1140763;-73
2023/11/21 08:44:30;;;;;;;21.00;13.83;;;;;;;0.89;100.00;100468.75;5096073;56;1140748;-74
2023/11/21 08:49:36;;;;;;;21.87;13.27;;;;;;;0.90;100.00;100469.59;5104352;56;1140860;-73
2023/11/21 08:54:43;;;;;;;19.23;12.50;;;;;;;0.85;100.00;100480.63;5142555;56;1141353;-74
2023/11/21 08:59:49;;;;;;;21.27;11.90;;;;;;;0.82;100.00;100489.41;5058149;56;1140603;-73
2023/11/21 09:04:54;;;;;;;22.17;13.50;;;;;;;0.82;100.00;100485.49;5076225;57;1140815;-73
2023/11/21 09:10:00;;;;;;;20.40;12.30;;;;;;;0.78;100.00;100493.02;5055831;57;1140866;-73
2023/11/21 09:15:07;;;;;;;17.77;10.20;;;;;;;0.77;100.00;100495.67;5021382;57;1140817;-73
2023/11/21 09:20:14;;;;;;;23.95;12.33;;;;;;;0.67;100.00;100502.54;5002479;57;1141043;-73
2023/11/21 09:25:21;;;;;;;26.97;13.30;;;;;;;0.68;100.00;100505.99;5045181;57;1145198;-73
2023/11/21 09:30:26;;;;;;;19.27;9.90;;;;;;;0.75;100.00;100512.69;4968153;58;1140782;-73
2023/11/21 09:35:32;;;;;;;22.37;13.80;;;;;;;0.81;100.00;100513.73;4969006;58;1138739;-73
2023/11/21 09:40:38;;;;;;;20.77;12.30;;;;;;;0.77;100.00;100519.10;5060037;57;1140765;-73
2023/11/21 09:45:50;;;;;;;20.23;12.93;;;;;;;0.70;100.00;100524.55;5040699;57;1140615;-74
2023/11/21 09:50:56;;;;;;;18.57;11.30;;;;;;;0.70;100.00;100534.97;5050097;57;1140821;-74
2023/11/21 09:56:02;;;;;;;21.87;12.77;;;;;;;0.68;100.00;100532.02;5069589;57;1140905;-72
2023/11/21 10:01:09;;;;;;;28.97;16.67;;;;;;;0.68;100.00;100532.02;5050014;57;1140667;-73
2023/11/21 10:06:15;;;;;;;24.40;14.00;;;;;;;0.71;100.00;100537.12;5049870;57;1140634;-73
2023/11/21 10:11:23;;;;;;;23.15;14.07;;;;;;;0.75;100.00;100535.26;5069555;57;1140927;-73
2023/11/21 10:16:29;;;;;;;26.23;14.60;;;;;;;0.77;100.00;100535.57;5107799;56;1140935;-74
2023/11/21 10:21:34;;;;;;;20.30;12.82;;;;;;;0.75;100.00;100529.60;5057281;56;1140880;-73
2023/11/21 10:26:41;;;;;;;18.77;12.27;;;;;;;0.79;100.00;100538.13;4978709;58;1140790;-73
2023/11/21 10:31:48;;;;;;;18.77;12.93;;;;;;;0.83;100.00;100545.77;5125717;56;1140967;-72
2023/11/21 10:36:57;;;;;;;29.33;16.50;;;;;;;0.84;100.00;100546.17;5114662;56;1140653;-74
2023/11/21 10:42:01;;;;;;;27.40;17.37;;;;;;;0.89;100.00;100557.72;4931604;58;1141083;-74
2023/11/21 10:47:11;;;;;;;41.43;20.87;;;;;;;0.88;100.00;100558.63;5124775;56;1262402;-73
2023/11/21 10:52:17;;;;;;;32.17;16.77;;;;;;;0.92;100.00;100561.48;5044548;56;1140877;-73
2023/11/21 10:57:24;;;;;;;25.10;15.68;;;;;;;0.94;100.00;100569.64;5042059;57;1140827;-73
2023/11/21 11:02:32;;;;;;;30.17;15.00;;;;;;;0.88;100.00;100571.64;5062382;57;1140982;-73
2023/11/21 11:07:38;;;;;;;28.20;16.17;;;;;;;0.81;100.00;100581.42;5042447;57;1141002;-73
2023/11/21 11:12:44;;;;;;;28.03;15.40;;;;;;;0.80;100.00;100585.38;5041416;57;1141054;-73
2023/11/21 11:17:51;;;;;;;31.33;16.00;;;;;;;0.81;100.00;100585.33;5025328;56;1141071;-73
2023/11/21 11:23:40;;;;;;;29.30;16.03;;;;;;;0.77;100.00;100592.84;5126255;56;1140977;-72
2023/11/21 11:29:11;;;;;;;28.40;15.03;;;;;;;0.73;100.00;100597.78;4959074;58;1140808;-73
2023/11/21 11:34:31;;;;;;;24.97;13.57;;;;;;;0.70;100.00;100598.73;5125410;56;1141179;-73
2023/11/21 11:39:43;;;;;;;27.27;14.27;;;;;;;0.70;100.00;100609.60;5116956;56;1140812;-73
2023/11/21 11:44:54;;;;;;;25.93;13.77;;;;;;;0.73;100.00;100619.91;5126917;56;1140863;-74
2023/11/21 11:50:19;;;;;;;32.97;14.90;;;;;;;0.75;100.00;100631.58;5040332;57;1140841;-73
2023/11/21 11:55:30;;;;;;;32.90;16.83;;;;;;;0.76;100.00;100642.39;5041084;57;1140831;-73
2023/11/21 12:00:41;;;;;;;27.37;14.00;;;;;;;0.71;100.00;100651.64;5041079;56;1140877;-73
2023/11/21 12:05:45;;;;;;;25.87;14.93;;;;;;;0.73;100.00;100654.20;5060958;57;1141114;-74
2023/11/21 12:10:54;;;;;;;35.27;16.47;;;;;;;0.70;100.00;100660.36;5041364;57;1140890;-73
2023/11/21 12:15:58;;;;;;;33.87;16.63;;;;;;;0.73;100.00;100661.55;4999119;56;1140518;-74
2023/11/21 12:21:04;;;;;;;24.37;13.17;;;;;;;0.80;100.00;100660.42;5098793;56;1141113;-73
2023/11/21 12:26:10;;;;;;;26.33;14.25;;;;;;;0.85;100.00;100665.47;5057046;57;1140933;-73
2023/11/21 12:31:16;;;;;;;33.20;15.47;;;;;;;0.78;100.00;100663.53;5057710;56;1140816;-74
2023/11/21 12:36:23;;;;;;;27.00;14.20;;;;;;;0.70;100.00;100662.51;5085642;56;1141263;-73
2023/11/21 12:41:30;;;;;;;24.83;13.67;;;;;;;0.70;100.00;100662.95;5106040;56;1140755;-76
2023/11/21 12:46:36;;;;;;;28.50;15.55;;;;;;;0.66;100.00;100663.52;5071329;56;1141088;-73
2023/11/21 12:51:42;;;;;;;24.40;12.73;;;;;;;0.69;100.00;100679.03;5077234;56;1141079;-74
2023/11/21 12:56:48;;;;;;;30.50;15.57;;;;;;;0.71;100.00;100678.98;5112706;56;1141122;-74
2023/11/21 13:01:58;;;;;;;23.53;13.20;;;;;;;0.68;100.00;100683.83;5132067;56;1141035;-73
2023/11/21 13:07:14;;;;;;;26.30;15.20;;;;;;;0.69;100.00;100701.16;5107134;56;1140715;-73
2023/11/21 13:12:18;;;;;;;26.23;14.00;;;;;;;0.72;100.00;100709.31;5126603;56;1140935;-72
2023/11/21 13:17:24;;;;;;;24.80;14.00;;;;;;;0.79;100.00;100709.94;5093590;56;1140965;-73
2023/11/21 13:22:29;;;;;;;29.60;15.43;;;;;;;0.78;100.00;100730.36;5087613;56;1141109;-73
2023/11/21 13:27:38;;;;;;;22.85;12.60;;;;;;;0.75;100.00;100739.60;5065160;56;1141031;-73
2023/11/21 13:32:49;;;;;;;22.10;11.63;;;;;;;0.70;100.00;100738.45;4982809;57;1140914;-73
2023/11/21 13:37:55;;;;;;;21.50;12.83;;;;;;;0.62;100.00;100749.55;5089314;56;1140804;-73
2023/11/21 13:43:04;;;;;;;26.80;13.10;;;;;;;0.64;100.00;100752.95;5126243;56;1140742;-72
2023/11/21 13:48:19;;;;;;;22.67;14.33;;;;;;;0.64;100.00;100759.45;5084547;56;1140829;-74
2023/11/21 13:53:23;;;;;;;24.30;14.93;;;;;;;0.64;100.00;100769.87;5041905;57;1140875;-73
2023/11/21 13:58:51;;;;;;;23.83;14.23;;;;;;;0.68;100.00;100781.44;5061527;57;1141239;-72
2023/11/21 14:04:00;;;;;;;27.60;13.73;;;;;;;0.71;100.00;100788.30;5041444;57;1140873;-72
2023/11/21 14:09:05;;;;;;;30.03;14.53;;;;;;;0.70;100.00;100793.11;5041062;57;1140888;-72
2023/11/21 14:14:11;;;;;;;45.07;19.20;;;;;;;0.74;100.00;100797.32;5112959;56;1140974;-73
2023/11/21 14:19:16;;;;;;;31.00;15.03;;;;;;;0.79;100.00;100803.66;5145666;56;1140907;-73
2023/11/21 14:24:24;;;;;;;27.07;13.73;;;;;;;0.79;100.00;100817.97;5104977;56;1140909;-73
2023/11/21 14:29:31;;;;;;;24.70;12.30;;;;;;;0.75;100.00;100826.36;5050836;56;1140864;-73
2023/11/21 14:34:36;;;;;;;28.30;13.47;;;;;;;0.71;100.00;100835.16;5091031;56;1143380;-73
2023/11/21 14:39:46;;;;;;;21.47;13.03;;;;;;;0.69;100.00;100849.97;5071277;56;1140916;-74
2023/11/21 14:44:51;;;;;;;33.80;13.77;;;;;;;0.70;100.00;100849.92;5055865;56;1140516;-74
2023/11/21 14:49:59;;;;;;;28.97;14.10;;;;;;;0.72;100.00;100859.44;4978658;57;1141109;-73
2023/11/21 15:05:43;;;;;;;26.57;13.17;;;;;;;0.63;100.00;100864.46;5140643;56;974059;-73
2023/11/21 15:10:57;;;;;;;25.13;13.57;;;;;;;0.62;100.00;100874.02;5146822;56;1138660;-74
2023/11/21 15:16:07;;;;;;;28.20;14.33;;;;;;;0.60;100.00;100876.30;5125310;56;1140958;-74
2023/11/21 15:21:11;;;;;;;29.50;13.57;;;;;;;0.61;100.00;100889.72;5097386;55;1140693;-74
2023/11/21 15:26:13;;;;;;;29.87;13.83;;;;;;;0.61;100.00;100894.92;5102758;55;1140748;-76
2023/11/21 15:31:24;;;;;;;26.33;15.40;;;;;;;0.61;100.00;100907.94;5097035;56;1140614;-73
2023/11/21 15:36:27;;;;;;;29.67;14.87;;;;;;;0.62;100.00;100913.51;5097441;56;1140867;-74
2023/11/21 15:41:33;;;;;;;22.15;9.65;;;;;;;0.62;100.00;100918.72;5126186;55;1141174;-73
2023/11/21 15:46:41;;;;;;;30.05;13.58;;;;;;;0.61;100.00;100920.47;5147725;55;1138708;-73
2023/11/21 15:51:52;;;;;;;28.57;12.53;;;;;;;0.57;100.00;100921.48;5120857;55;1140943;-73
2023/11/21 15:56:59;;;;;;;19.20;11.57;;;;;;;0.55;100.00;100932.38;5117321;55;1140816;-74
2023/11/21 16:02:04;;;;;;;21.90;11.93;;;;;;;0.55;100.00;100936.28;5129498;56;1141028;-73
2023/11/21 16:07:11;;;;;;;21.10;12.27;;;;;;;0.52;100.00;100938.97;5126572;55;1140759;-73
2023/11/21 16:12:18;;;;;;;21.10;11.48;;;;;;;0.52;100.00;100938.97;5126406;56;1140921;-73
2023/11/21 16:17:24;;;;;;;27.58;12.25;;;;;;;0.50;100.00;100949.02;5153106;56;1141015;-73
2023/11/21 16:22:31;;;;;;;23.12;12.00;;;;;;;0.46;100.00;100961.73;5095606;56;1140789;-73
2023/11/21 16:27:36;;;;;;;23.77;12.88;;;;;;;0.52;100.00;100970.65;5077303;56;1140856;-74
2023/11/21 16:32:42;;;;;;;18.03;9.70;;;;;;;0.55;100.00;100970.56;5075301;57;1140696;-73
2023/11/21 16:37:48;;;;;;;16.73;8.07;;;;;;;0.55;100.00;100966.22;5037364;57;1138711;-73
2023/11/21 16:42:53;;;;;;;22.30;8.90;;;;;;;0.52;100.00;100973.25;5056034;57;1138559;-74
2023/11/21 16:47:59;;;;;;;15.73;9.40;;;;;;;0.48;100.00;100985.94;5075718;57;1138661;-73
2023/11/21 16:53:04;;;;;;;21.07;12.00;;;;;;;0.48;100.00;101001.10;5048325;56;1138683;-74
2023/11/21 16:58:10;;;;;;;22.40;10.43;;;;;;;0.45;100.00;101011.62;5053968;56;1140726;-73
2023/11/21 17:03:16;;;;;;;14.43;7.97;;;;;;;0.43;100.00;101012.11;5041059;56;1140876;-74
2023/11/21 17:08:22;;;;;;;28.77;9.80;;;;;;;0.40;100.00;101017.39;5053040;57;1138549;-74
2023/11/21 17:13:28;;;;;;;21.37;10.80;;;;;;;0.40;100.00;101019.99;5054199;57;1139069;-74
2023/11/21 17:18:33;;;;;;;22.48;10.13;;;;;;;0.34;100.00;101026.20;5054502;56;1140806;-75
2023/11/21 17:23:39;;;;;;;26.03;11.40;;;;;;;0.28;100.00;101038.11;5073148;56;1140785;-74
2023/11/21 17:28:45;;;;;;;15.83;8.13;;;;;;;0.28;100.00;101039.41;5089878;56;1141085;-73
2023/11/21 17:33:53;;;;;;;15.07;7.83;;;;;;;0.28;100.00;101043.30;5126391;56;1138901;-74
2023/11/21 17:38:58;;;;;;;27.67;11.20;;;;;;;0.26;100.00;101050.29;5075120;57;1138778;-74
2023/11/21 17:44:04;;;;;;;17.40;8.80;;;;;;;0.24;100.00;101055.13;5054470;57;1140714;-75
2023/11/21 17:49:09;;;;;;;22.17;9.90;;;;;;;0.22;100.00;101060.36;5054479;57;1138692;-75
2023/11/21 17:54:15;;;;;;;22.83;10.13;;;;;;;0.24;100.00;101063.78;5051541;57;1138737;-74
2023/11/21 17:59:20;;;;;;;27.30;10.90;;;;;;;0.19;100.00;101077.79;5073332;57;1140906;-75
2023/11/21 18:04:26;;;;;;;27.00;9.93;;;;;;;0.18;100.00;101076.08;5055131;57;1140981;-75
2023/11/21 18:09:33;;;;;;;20.12;8.88;;;;;;;0.21;100.00;101087.71;5045640;56;1139035;-74
2023/11/21 18:14:38;;;;;;;19.80;9.67;;;;;;;0.20;100.00;101100.31;5062087;56;1139004;-74
2023/11/21 18:19:44;;;;;;;15.13;8.53;;;;;;;0.20;100.00;101105.52;5040127;56;1138999;-74
2023/11/21 18:24:51;;;;;;;24.70;11.87;;;;;;;0.22;100.00;101116.73;5041413;57;1139173;-74
2023/11/21 18:30:00;;;;;;;20.40;10.33;;;;;;;0.20;100.00;101118.52;5074331;56;1140927;-75
2023/11/21 18:35:07;;;;;;;36.13;14.90;;;;;;;0.19;100.00;101122.01;5061361;56;1140858;-74
2023/11/21 18:40:15;;;;;;;24.93;10.10;;;;;;;0.17;100.00;101128.55;5038819;57;1140920;-75
2023/11/21 18:45:20;;;;;;;23.57;10.03;;;;;;;0.17;100.00;101134.19;5038893;57;1140835;-73
2023/11/21 18:50:27;;;;;;;53.15;17.70;;;;;;;0.15;100.00;101139.46;5079751;57;1140780;-77
2023/11/21 18:55:33;;;;;;;77.13;24.73;;;;;;;0.13;100.00;101159.89;5044645;57;1141010;-75
2023/11/21 19:00:39;;;;;;;34.03;12.20;;;;;;;0.14;100.00;101162.46;4983074;57;1140920;-76
2023/11/21 19:05:48;;;;;;;35.13;14.93;;;;;;;0.12;100.00;101169.44;5076270;56;1140946;-73
2023/11/21 19:10:54;;;;;;;32.83;14.03;;;;;;;0.10;100.00;101176.42;5087770;56;1141065;-73
2023/11/21 19:16:00;;;;;;;27.73;12.33;;;;;;;0.12;100.00;101199.80;5057420;56;1140913;-73
2023/11/21 19:21:06;;;;;;;22.77;9.43;;;;;;;0.12;100.00;101201.95;5074784;56;1140979;-75
2023/11/21 19:26:12;;;;;;;27.43;12.23;;;;;;;0.13;100.00;101206.27;5048742;56;1138888;-75
2023/11/21 19:31:22;;;;;;;30.75;11.93;;;;;;;0.08;100.00;101222.41;5053214;56;1141174;-72
2023/11/21 19:36:28;;;;;;;29.47;12.50;;;;;;;0.08;100.00;101226.31;5139308;56;1140665;-75
2023/11/21 19:41:33;;;;;;;35.00;13.43;;;;;;;0.05;100.00;101239.82;5119207;56;1148968;-74
2023/11/21 19:46:39;;;;;;;40.10;15.70;;;;;;;0.00;100.00;101262.05;5119954;56;1141191;-74
2023/11/21 19:51:45;;;;;;;34.03;13.10;;;;;;;-0.02;100.00;101269.03;5136295;55;1140805;-75
2023/11/21 19:56:50;;;;;;;26.93;9.53;;;;;;;-0.05;100.00;101272.55;5118968;56;1142906;-75
2023/11/21 20:01:56;;;;;;;18.07;8.63;;;;;;;-0.10;100.00;101273.08;5137179;56;1140954;-73
2023/11/21 20:07:02;;;;;;;22.03;8.67;;;;;;;-0.14;100.00;101280.97;5125363;56;1141363;-74
2023/11/21 20:12:08;;;;;;;17.17;9.20;;;;;;;-0.21;100.00;101283.30;4943376;57;1140849;-75
2023/11/21 20:17:14;;;;;;;18.87;7.87;;;;;;;-0.27;100.00;101301.61;5035794;57;1140975;-75
2023/11/21 20:22:20;;;;;;;21.47;10.03;;;;;;;-0.30;100.00;101306.42;5035848;57;1140819;-76
2023/11/21 20:27:26;;;;;;;21.60;10.57;;;;;;;-0.32;100.00;101322.97;5055210;57;1143013;-75
2023/11/21 20:32:34;;;;;;;23.13;10.30;;;;;;;-0.36;100.00;101336.45;5079137;55;1143008;-75
2023/11/21 20:37:40;;;;;;;19.40;9.07;;;;;;;-0.37;100.00;101346.44;5198859;55;1143161;-75
2023/11/21 20:42:46;;;;;;;27.95;12.90;;;;;;;-0.39;100.00;101363.36;5205098;55;1140889;-75
2023/11/21 20:47:52;;;;;;;23.03;9.53;;;;;;;-0.38;100.00;101366.81;5139223;56;1142753;-75
2023/11/21 20:52:57;;;;;;;21.60;10.10;;;;;;;-0.40;100.00;101372.03;5112933;56;1140826;-77
2023/11/21 20:58:03;;;;;;;25.57;10.93;;;;;;;-0.44;100.00;101368.21;5161174;55;1142945;-74
2023/11/21 21:03:09;;;;;;;21.57;10.23;;;;;;;-0.52;100.00;101369.67;5059489;56;1142940;-73
2023/11/21 21:08:16;;;;;;;21.87;10.50;;;;;;;-0.60;100.00;101375.87;5091536;56;1142821;-73
2023/11/21 21:13:22;;;;;;;21.73;9.30;;;;;;;-0.67;100.00;101389.43;5161194;56;1143175;-73
2023/11/21 21:18:28;;;;;;;22.27;9.83;;;;;;;-0.69;100.00;101395.09;5130769;56;1141035;-73
2023/11/21 21:23:34;;;;;;;17.75;8.93;;;;;;;-0.69;100.00;101396.39;5141471;56;1140947;-73
2023/11/21 21:28:40;;;;;;;21.25;10.65;;;;;;;-0.69;100.00;101413.72;5136096;56;1140895;-73
2023/11/21 21:33:46;;;;;;;23.73;11.22;;;;;;;-0.71;100.00;101415.03;5110070;56;1142910;-72
2023/11/21 21:38:52;;;;;;;23.23;10.10;;;;;;;-0.69;100.00;101419.77;5119431;56;1143013;-73
2023/11/21 21:43:58;;;;;;;22.40;10.37;;;;;;;-0.68;100.00;101416.29;5144777;55;1143468;-73
2023/11/21 21:49:04;;;;;;;22.90;9.73;;;;;;;-0.74;100.00;101428.06;5050626;56;1143171;-73
2023/11/21 21:54:09;;;;;;;16.33;8.63;;;;;;;-0.74;100.00;101434.56;5053856;56;1140882;-73
2023/11/21 21:59:15;;;;;;;24.87;11.10;;;;;;;-0.69;100.00;101457.88;5125991;55;1140998;-72
2023/11/21 22:04:20;;;;;;;24.57;9.53;;;;;;;-0.68;100.00;101455.69;5146014;56;1142923;-73
2023/11/21 22:09:26;;;;;;;21.10;9.13;;;;;;;-0.68;100.00;101467.38;5069362;56;1140764;-73
2023/11/21 22:14:31;;;;;;;14.67;7.70;;;;;;;-0.78;100.00;101477.93;4953499;58;1140783;-73
2023/11/21 22:19:37;;;;;;;19.17;8.97;;;;;;;-0.82;100.00;101490.98;5089161;56;1146185;-72
2023/11/21 22:24:42;;;;;;;17.23;8.40;;;;;;;-0.88;100.00;101483.27;5126248;55;1140934;-72
2023/11/21 22:29:48;;;;;;;19.17;7.70;;;;;;;-0.91;100.00;101491.09;5126062;56;1141105;-72
2023/11/21 22:34:54;;;;;;;17.57;8.13;;;;;;;-0.98;100.00;101494.68;5118561;55;1140844;-72
2023/11/21 22:39:59;;;;;;;13.17;6.67;;;;;;;-1.03;100.00;101492.58;5099433;56;1141065;-72
2023/11/21 22:45:07;;;;;;;20.43;9.53;;;;;;;-1.07;100.00;101495.22;5085995;55;1140751;-72
2023/11/21 22:50:13;;;;;;;20.72;8.28;;;;;;;-1.08;100.00;101501.31;5070285;55;1141090;-72
2023/11/21 22:55:19;;;;;;;23.27;8.27;;;;;;;-1.07;100.00;101509.97;5157726;55;1140978;-73
2023/11/21 23:00:29;;;;;;;23.03;10.20;;;;;;;-1.13;100.00;101517.83;5109076;55;1140901;-71